Time;durP1;ratioP1;P1;durP2;ratioP2;P2;SDS_P1;SDS_P2;PMS_P1;PMS_P2;Temp;Humidity;BMP_temperature;BMP_pressure;BME280_temperature;BME280_humidity;BME280_pressure;Samples;Min_cycle;Max_cycle;Signal;HPM_P1;HPM_P2
2022/11/03 00:00:32;;;;;;;5.80;3.97;;;;;;;;;;6217568;22;19988;-85
2022/11/03 00:02:58;;;;;;;6.90;3.95;;;;;;;;;;6267574;22;20015;-83
2022/11/03 00:08:07;;;;;;;5.97;4.70;;;;;;;;;;6244903;22;20012;-86
2022/11/03 00:10:33;;;;;;;7.53;4.40;;;;;;;;;;6240760;22;20000;-86
2022/11/03 00:12:59;;;;;;;7.80;4.75;;;;;;;;;;6216368;22;20051;-86
2022/11/03 00:15:24;;;;;;;6.38;4.68;;;;;;;;;;6240177;22;20078;-85
2022/11/03 00:17:50;;;;;;;6.82;4.38;;;;;;;;;;6217431;22;20012;-85
2022/11/03 00:20:15;;;;;;;7.22;4.50;;;;;;;;;;6216563;22;20049;-85
2022/11/03 00:22:42;;;;;;;7.82;4.15;;;;;;;;;;6242792;22;20012;-86
2022/11/03 00:25:07;;;;;;;6.55;4.90;;;;;;;;;;6217567;22;20087;-86
2022/11/03 00:27:33;;;;;;;7.25;4.20;;;;;;;;;;6242143;22;20398;-86
2022/11/03 00:29:58;;;;;;;6.72;4.13;;;;;;;;;;6217189;22;20038;-85
2022/11/03 00:32:24;;;;;;;6.10;4.18;;;;;;;;;;6218946;22;20355;-85
2022/11/03 00:34:49;;;;;;;6.72;4.57;;;;;;;;;;6242968;22;20003;-85
2022/11/03 00:37:15;;;;;;;7.13;4.10;;;;;;;;;;6217021;22;20015;-84
2022/11/03 00:39:40;;;;;;;6.80;3.95;;;;;;;;;;6217159;22;20018;-85
2022/11/03 00:42:06;;;;;;;5.82;4.70;;;;;;;;;;6242312;22;20011;-86
2022/11/03 00:44:31;;;;;;;5.28;4.50;;;;;;;;;;6240884;22;20003;-84
2022/11/03 00:46:57;;;;;;;5.72;4.47;;;;;;;;;;6239414;22;20016;-86
2022/11/03 00:49:23;;;;;;;6.70;4.43;;;;;;;;;;6216065;22;20023;-85
2022/11/03 00:51:48;;;;;;;6.20;4.13;;;;;;;;;;6238420;22;20021;-85
2022/11/03 00:54:14;;;;;;;5.30;4.00;;;;;;;;;;6215449;22;20027;-84
2022/11/03 00:56:40;;;;;;;6.95;4.60;;;;;;;;;;6239902;22;20034;-84
2022/11/03 00:59:06;;;;;;;5.85;4.35;;;;;;;;;;6238925;22;20442;-85
2022/11/03 01:01:36;;;;;;;7.20;4.50;;;;;;;;;;6237996;22;20023;-84
2022/11/03 01:06:49;;;;;;;7.35;4.93;;;;;;;;;;6242253;22;20012;-84
2022/11/03 01:09:15;;;;;;;6.80;4.95;;;;;;;;;;6237894;22;20056;-85
2022/11/03 01:11:43;;;;;;;;;;;;;;;;;;6213514;22;20080;-84
2022/11/03 01:14:13;;;;;;;6.95;5.20;;;;;;;;;;6238652;22;19907;-85
2022/11/03 01:16:39;;;;;;;8.65;5.40;;;;;;;;;;6238319;22;20529;-85
2022/11/03 01:19:04;;;;;;;8.13;5.15;;;;;;;;;;6237880;22;19999;-85
2022/11/03 01:21:30;;;;;;;8.05;5.50;;;;;;;;;;6240087;22;20064;-85
2022/11/03 01:23:55;;;;;;;6.90;5.35;;;;;;;;;;6241387;22;20007;-85
2022/11/03 01:26:21;;;;;;;8.13;5.32;;;;;;;;;;6241081;22;20012;-86
2022/11/03 01:28:47;;;;;;;8.98;6.15;;;;;;;;;;6216071;22;20003;-86
2022/11/03 01:31:12;;;;;;;8.50;5.38;;;;;;;;;;6242329;22;20011;-86
2022/11/03 01:33:38;;;;;;;6.90;5.32;;;;;;;;;;6264549;22;20015;-86
2022/11/03 01:36:04;;;;;;;7.28;5.68;;;;;;;;;;6214576;22;20099;-85
2022/11/03 01:38:31;;;;;;;8.80;6.65;;;;;;;;;;6265519;22;20023;-85
2022/11/03 01:40:56;;;;;;;8.13;5.47;;;;;;;;;;6212448;22;20067;-85
2022/11/03 01:43:22;;;;;;;6.97;5.30;;;;;;;;;;6236058;22;19995;-83
2022/11/03 01:45:48;;;;;;;7.68;5.13;;;;;;;;;;6235355;22;20427;-84
2022/11/03 01:48:14;;;;;;;7.65;4.13;;;;;;;;;;6259039;22;20004;-85
2022/11/03 01:50:39;;;;;;;8.13;5.10;;;;;;;;;;6209859;22;20007;-85
2022/11/03 01:53:05;;;;;;;6.97;4.85;;;;;;;;;;6235768;22;20006;-84
2022/11/03 01:55:38;;;;;;;7.78;4.78;;;;;;;;;;6234426;22;20035;-84
2022/11/03 01:58:09;;;;;;;6.90;4.38;;;;;;;;;;6208407;22;20011;-84
2022/11/03 02:00:35;;;;;;;6.85;4.50;;;;;;;;;;6257513;22;20018;-84
2022/11/03 02:03:00;;;;;;;6.72;4.90;;;;;;;;;;6231973;22;20023;-84
2022/11/03 02:05:26;;;;;;;6.68;5.47;;;;;;;;;;6232304;22;20470;-84
2022/11/03 02:07:52;;;;;;;6.63;5.35;;;;;;;;;;6232232;22;20000;-84
2022/11/03 02:10:18;;;;;;;8.02;4.97;;;;;;;;;;6233522;22;20410;-84
2022/11/03 02:12:44;;;;;;;6.47;5.00;;;;;;;;;;6233880;22;20031;-84
2022/11/03 02:15:10;;;;;;;7.63;5.65;;;;;;;;;;6233793;22;20015;-84
2022/11/03 02:17:36;;;;;;;8.88;5.72;;;;;;;;;;6233447;22;19995;-84
2022/11/03 02:20:03;;;;;;;7.60;5.70;;;;;;;;;;6234990;22;20042;-84
2022/11/03 02:22:35;;;;;;;6.93;5.20;;;;;;;;;;6233205;22;20059;-84
2022/11/03 02:25:19;;;;;;;9.18;5.53;;;;;;;;;;6234856;22;20018;-84
2022/11/03 02:27:45;;;;;;;8.15;5.80;;;;;;;;;;6257441;22;20012;-84
2022/11/03 02:30:10;;;;;;;7.63;5.47;;;;;;;;;;6233663;22;20547;-84
2022/11/03 02:32:56;;;;;;;7.68;5.70;;;;;;;;;;6259980;22;20347;-84
2022/11/03 02:35:25;;;;;;;8.93;6.15;;;;;;;;;;6258196;22;20008;-86
2022/11/03 02:37:52;;;;;;;7.15;5.43;;;;;;;;;;6264683;22;20020;-85
2022/11/03 02:40:20;;;;;;;8.05;6.10;;;;;;;;;;6207180;23;20463;-85
2022/11/03 02:42:46;;;;;;;8.65;5.90;;;;;;;;;;6181413;23;20440;-85
2022/11/03 02:45:13;;;;;;;11.25;6.15;;;;;;;;;;6202981;23;20462;-85
2022/11/03 02:47:38;;;;;;;10.02;6.43;;;;;;;;;;6191807;23;20028;-85
2022/11/03 02:50:06;;;;;;;9.35;6.55;;;;;;;;;;6207475;23;20079;-84
2022/11/03 02:52:37;;;;;;;8.63;5.85;;;;;;;;;;6207151;23;20012;-86
2022/11/03 02:55:08;;;;;;;7.47;5.57;;;;;;;;;;6205947;23;20040;-85
2022/11/03 02:57:35;;;;;;;11.68;6.40;;;;;;;;;;6207812;23;20008;-86
2022/11/03 03:00:05;;;;;;;8.93;5.82;;;;;;;;;;6207838;23;20012;-85
2022/11/03 03:02:57;;;;;;;8.55;6.15;;;;;;;;;;6208247;23;20008;-84
2022/11/03 03:05:23;;;;;;;6.53;4.38;;;;;;;;;;6203353;23;20039;-84
2022/11/03 03:07:48;;;;;;;;;;;;;;;;;;6182809;23;20050;-85
2022/11/03 03:10:20;;;;;;;9.95;5.45;;;;;;;;;;6205723;23;19907;-84
2022/11/03 03:12:47;;;;;;;7.38;4.88;;;;;;;;;;6177782;23;20028;-83
2022/11/03 03:15:12;;;;;;;9.88;6.35;;;;;;;;;;6179523;23;20035;-86
2022/11/03 03:17:50;;;;;;;8.68;5.72;;;;;;;;;;6206434;23;20012;-85
2022/11/03 03:20:27;;;;;;;9.73;6.00;;;;;;;;;;6230283;23;20008;-84
2022/11/03 03:22:57;;;;;;;13.68;6.82;;;;;;;;;;6181160;23;20440;-84
2022/11/03 03:25:31;;;;;;;8.35;5.85;;;;;;;;;;6239590;23;20047;-84
2022/11/03 03:27:58;;;;;;;7.68;5.90;;;;;;;;;;6231711;23;20115;-85
2022/11/03 03:30:24;;;;;;;8.50;6.35;;;;;;;;;;6182569;23;20035;-86
2022/11/03 03:32:50;;;;;;;9.68;6.55;;;;;;;;;;6207905;23;20007;-85
2022/11/03 03:35:22;;;;;;;10.90;6.25;;;;;;;;;;6209081;23;20008;-84
2022/11/03 03:37:48;;;;;;;10.43;6.10;;;;;;;;;;6205466;23;20014;-85
2022/11/03 03:40:15;;;;;;;11.00;6.70;;;;;;;;;;6181065;23;19996;-85
2022/11/03 03:42:41;;;;;;;7.18;5.90;;;;;;;;;;6231389;23;20027;-86
2022/11/03 03:45:07;;;;;;;10.60;7.20;;;;;;;;;;6180072;23;20004;-85
2022/11/03 03:47:33;;;;;;;8.70;6.75;;;;;;;;;;6203790;23;20028;-84
2022/11/03 03:49:59;;;;;;;10.60;7.20;;;;;;;;;;6179081;23;20019;-83
2022/11/03 03:52:24;;;;;;;;;;;;;;;;;;6229305;23;20007;-84
2022/11/03 03:54:50;;;;;;;12.90;7.43;;;;;;;;;;6230229;23;19915;-84
2022/11/03 03:57:16;;;;;;;9.82;7.28;;;;;;;;;;6209776;23;20012;-85
2022/11/03 03:59:42;;;;;;;13.63;8.00;;;;;;;;;;6236565;23;20018;-85
2022/11/03 04:02:08;;;;;;;14.50;9.27;;;;;;;;;;6186463;23;20012;-86
2022/11/03 04:04:33;;;;;;;16.20;9.52;;;;;;;;;;6186826;23;20028;-86
2022/11/03 04:09:44;;;;;;;11.45;7.55;;;;;;;;;;6246339;23;20008;-87
2022/11/03 04:23:10;;;;;;;15.00;9.10;;;;;;;;;;6244300;23;20393;-86
2022/11/03 04:25:35;;;;;;;17.58;8.73;;;;;;;;;;6216871;23;20057;-86
2022/11/03 04:28:11;;;;;;;16.83;8.95;;;;;;;;;;6218803;23;20016;-87
2022/11/03 04:30:38;;;;;;;12.95;9.68;;;;;;;;;;6241784;23;20012;-87
2022/11/03 04:33:04;;;;;;;14.32;8.88;;;;;;;;;;6188883;23;20023;-84
2022/11/03 04:35:30;;;;;;;15.60;8.82;;;;;;;;;;6188941;23;20031;-87
2022/11/03 04:38:02;;;;;;;15.20;9.65;;;;;;;;;;6216982;23;20003;-87
2022/11/03 04:40:28;;;;;;;14.68;9.82;;;;;;;;;;6193908;23;20055;-88
2022/11/03 04:42:55;;;;;;;15.80;10.50;;;;;;;;;;6241065;23;19983;-88
2022/11/03 04:45:27;;;;;;;28.92;10.82;;;;;;;;;;6243217;23;20043;-86
2022/11/03 04:47:54;;;;;;;13.82;9.75;;;;;;;;;;6237531;22;20038;-88
2022/11/03 04:50:21;;;;;;;13.20;8.88;;;;;;;;;;6240266;22;20012;-86
2022/11/03 04:52:47;;;;;;;18.85;9.32;;;;;;;;;;6248198;22;20035;-86
2022/11/03 04:55:16;;;;;;;16.52;9.45;;;;;;;;;;6215341;22;20007;-85
2022/11/03 04:57:42;;;;;;;19.92;9.45;;;;;;;;;;6240413;22;20027;-83
2022/11/03 05:00:12;;;;;;;14.80;9.02;;;;;;;;;;6206450;22;20000;-83
2022/11/03 05:02:38;;;;;;;15.35;8.98;;;;;;;;;;6232853;22;20038;-84
2022/11/03 05:05:08;;;;;;;17.45;9.00;;;;;;;;;;6213112;22;20003;-84
2022/11/03 05:07:34;;;;;;;17.60;11.13;;;;;;;;;;6237039;22;20022;-85
2022/11/03 05:10:00;;;;;;;17.70;10.88;;;;;;;;;;6242193;22;20004;-84
2022/11/03 05:12:25;;;;;;;;;;;;;;;;;;6215944;22;20156;-83
2022/11/03 05:14:51;;;;;;;24.73;10.02;;;;;;;;;;6268899;22;20335;-84
2022/11/03 05:17:23;;;;;;;18.55;10.60;;;;;;;;;;6262498;22;20007;-83
2022/11/03 05:19:49;;;;;;;18.75;10.40;;;;;;;;;;6213110;22;19988;-86
2022/11/03 05:25:25;;;;;;;18.88;9.68;;;;;;;;;;6287181;22;20014;-87
2022/11/03 05:30:57;;;;;;;17.13;10.18;;;;;;;;;;6299672;22;20071;-87
2022/11/03 05:33:30;;;;;;;13.90;9.35;;;;;;;;;;6252224;22;20015;-86
2022/11/03 05:35:56;;;;;;;15.60;9.18;;;;;;;;;;6226922;22;20007;-86
2022/11/03 05:38:22;;;;;;;19.02;8.88;;;;;;;;;;6251348;22;20006;-88
2022/11/03 05:40:50;;;;;;;18.02;10.13;;;;;;;;;;6251344;22;20011;-88
2022/11/03 05:43:21;;;;;;;17.13;9.40;;;;;;;;;;6253294;22;20023;-88
2022/11/03 05:46:08;;;;;;;16.42;9.63;;;;;;;;;;6253556;22;19995;-87
2022/11/03 05:48:57;;;;;;;16.08;9.65;;;;;;;;;;6253510;22;20012;-86
2022/11/03 06:30:50;;;;;;;20.20;10.75;;;;;;;;;;6331945;22;20007;-88
2022/11/03 06:33:26;;;;;;;16.65;10.68;;;;;;;;;;6282686;22;20026;-86
2022/11/03 06:35:59;;;;;;;21.38;10.77;;;;;;;;;;6307803;22;20047;-87
2022/11/03 06:38:45;;;;;;;19.58;10.25;;;;;;;;;;6283306;22;20010;-88
2022/11/03 11:07:39;;;;;;;16.00;9.75;;;;;;;;;;6320985;22;20029;-87
2022/11/03 15:54:20;;;;;;;16.80;7.90;;;;;;;;;;6273633;22;20012;-85
2022/11/03 16:23:45;;;;;;;16.10;8.80;;;;;;;;;;6265323;22;20034;-86
2022/11/03 16:29:02;;;;;;;15.30;8.15;;;;;;;;;;6309826;22;20083;-87
2022/11/03 16:31:30;;;;;;;14.45;7.85;;;;;;;;;;6304706;22;20018;-86
2022/11/03 16:33:56;;;;;;;11.77;8.05;;;;;;;;;;6281787;22;20019;-85
2022/11/03 16:36:24;;;;;;;16.10;9.05;;;;;;;;;;6281519;22;20007;-87
2022/11/03 16:39:16;;;;;;;18.05;8.95;;;;;;;;;;6294481;22;20059;-87
2022/11/03 16:58:48;;;;;;;12.50;7.97;;;;;;;;;;6314337;22;20026;-87
2022/11/03 17:01:15;;;;;;;16.90;10.52;;;;;;;;;;6251942;22;19992;-88
2022/11/03 17:03:40;;;;;;;16.85;8.00;;;;;;;;;;6226480;22;19988;-87
2022/11/03 17:06:06;;;;;;;;;;;;;;;;;;6252310;22;20010;-87
2022/11/03 17:08:32;;;;;;;17.13;9.38;;;;;;;;;;6277324;22;19903;-86
2022/11/03 17:11:01;;;;;;;14.93;7.63;;;;;;;;;;6253354;22;20019;-87
2022/11/03 17:13:27;;;;;;;18.40;11.80;;;;;;;;;;6277198;22;19996;-87
2022/11/03 17:15:54;;;;;;;15.25;8.18;;;;;;;;;;6277064;22;19992;-86
2022/11/03 17:18:20;;;;;;;14.05;8.52;;;;;;;;;;6278285;22;20030;-87
2022/11/03 17:26:03;;;;;;;15.02;7.88;;;;;;;;;;6298443;22;20019;-87
2022/11/03 17:40:22;;;;;;;15.18;7.90;;;;;;;;;;6296505;22;20030;-87
2022/11/03 17:42:53;;;;;;;10.90;6.82;;;;;;;;;;6300387;22;20023;-87
2022/11/03 17:45:20;;;;;;;14.63;6.88;;;;;;;;;;6274974;22;20019;-87
2022/11/03 17:47:48;;;;;;;13.75;7.50;;;;;;;;;;6272169;22;20002;-85
2022/11/03 17:50:14;;;;;;;11.48;7.00;;;;;;;;;;6247348;22;20031;-86
2022/11/03 17:52:40;;;;;;;11.50;7.25;;;;;;;;;;6273338;22;19995;-86
2022/11/03 17:55:12;;;;;;;12.55;7.28;;;;;;;;;;6243718;22;20026;-86
2022/11/03 17:57:38;;;;;;;12.75;6.95;;;;;;;;;;6248067;22;20666;-86
2022/11/03 18:00:04;;;;;;;12.55;7.65;;;;;;;;;;6272970;22;20011;-87
2022/11/03 18:02:34;;;;;;;10.95;7.07;;;;;;;;;;6295677;22;20019;-86
2022/11/03 18:05:09;;;;;;;13.80;6.95;;;;;;;;;;6300115;22;20020;-87
2022/11/03 18:08:04;;;;;;;12.48;8.30;;;;;;;;;;6298909;22;20038;-85
2022/11/03 18:10:31;;;;;;;19.02;11.32;;;;;;;;;;6273924;22;20004;-85
2022/11/03 18:13:15;;;;;;;18.23;8.65;;;;;;;;;;6275453;22;20077;-85
2022/11/03 18:15:51;;;;;;;11.75;7.28;;;;;;;;;;6297612;22;20018;-86
2022/11/03 18:18:17;;;;;;;12.75;7.32;;;;;;;;;;6273391;22;20008;-86
2022/11/03 18:20:45;;;;;;;11.93;8.07;;;;;;;;;;6272337;22;19996;-86
2022/11/03 18:23:16;;;;;;;11.43;7.70;;;;;;;;;;6248582;22;20029;-84
2022/11/03 18:25:43;;;;;;;12.27;6.57;;;;;;;;;;6274018;22;20007;-87
2022/11/03 18:28:11;;;;;;;12.43;7.85;;;;;;;;;;6274852;22;20015;-86
2022/11/03 18:30:36;;;;;;;;;;;;;;;;;;6299616;22;20014;-86
2022/11/03 18:33:02;;;;;;;13.68;7.93;;;;;;;;;;6297751;22;19902;-86
2022/11/03 18:35:28;;;;;;;;;;;;;;;;;;6247592;22;19992;-85
2022/11/03 18:37:55;;;;;;;10.80;7.32;;;;;;;;;;6299461;22;19899;-85
2022/11/03 18:40:22;;;;;;;14.77;7.60;;;;;;;;;;6274672;22;20016;-86
2022/11/03 18:42:51;;;;;;;13.02;7.65;;;;;;;;;;6248283;22;20016;-86
2022/11/03 18:45:16;;;;;;;11.40;7.50;;;;;;;;;;6247916;22;20008;-86
2022/11/03 18:47:42;;;;;;;13.80;7.95;;;;;;;;;;6274154;22;19996;-86
2022/11/03 18:50:15;;;;;;;15.85;8.40;;;;;;;;;;6247895;22;20018;-86
2022/11/03 18:52:42;;;;;;;13.50;7.70;;;;;;;;;;6273114;22;20008;-85
2022/11/03 18:55:10;;;;;;;9.80;6.55;;;;;;;;;;6245487;22;20014;-86
2022/11/03 18:57:36;;;;;;;11.65;7.80;;;;;;;;;;6244786;22;20067;-87
2022/11/03 19:00:03;;;;;;;14.55;7.55;;;;;;;;;;6245436;22;20022;-87
2022/11/03 19:02:29;;;;;;;10.73;6.97;;;;;;;;;;6299060;22;20035;-87
2022/11/03 19:04:55;;;;;;;11.15;6.95;;;;;;;;;;6275322;22;20023;-85
2022/11/03 19:07:25;;;;;;;14.50;7.78;;;;;;;;;;6272117;22;20394;-86
2022/11/03 19:09:51;;;;;;;11.52;7.22;;;;;;;;;;6248028;22;20012;-86
2022/11/03 19:12:17;;;;;;;14.15;7.90;;;;;;;;;;6266405;22;20047;-86
2022/11/03 19:14:46;;;;;;;10.93;7.55;;;;;;;;;;6242212;23;20020;-86
2022/11/03 19:17:12;;;;;;;12.45;7.30;;;;;;;;;;6267582;22;20004;-87
2022/11/03 19:19:38;;;;;;;14.60;7.72;;;;;;;;;;6274291;22;20000;-86
2022/11/03 19:22:12;;;;;;;10.43;6.82;;;;;;;;;;6271009;23;20004;-86
2022/11/03 19:24:38;;;;;;;13.57;7.20;;;;;;;;;;6270395;22;20071;-86
2022/11/03 19:27:09;;;;;;;9.63;7.22;;;;;;;;;;6270382;23;20012;-85
2022/11/03 19:29:36;;;;;;;13.77;7.47;;;;;;;;;;6269654;22;20012;-86
2022/11/03 19:32:02;;;;;;;11.18;6.70;;;;;;;;;;6242058;23;20004;-87
2022/11/03 19:34:29;;;;;;;11.25;6.60;;;;;;;;;;6270338;23;20012;-87
2022/11/03 19:36:55;;;;;;;10.90;7.15;;;;;;;;;;6246054;23;20004;-87
2022/11/03 19:39:22;;;;;;;10.38;7.13;;;;;;;;;;6272541;23;20011;-86
2022/11/03 19:44:32;;;;;;;10.63;6.53;;;;;;;;;;6271552;22;20072;-86
2022/11/03 19:46:58;;;;;;;13.73;6.60;;;;;;;;;;6243118;23;20000;-86
2022/11/03 19:49:24;;;;;;;12.70;7.30;;;;;;;;;;6267111;23;20043;-86
2022/11/03 19:54:31;;;;;;;9.52;6.47;;;;;;;;;;6281149;22;20049;-86
2022/11/03 19:57:01;;;;;;;10.50;7.88;;;;;;;;;;6251401;22;20011;-87
2022/11/03 19:59:27;;;;;;;13.88;7.15;;;;;;;;;;6277623;22;20022;-86
2022/11/03 20:01:53;;;;;;;9.65;6.70;;;;;;;;;;6278752;22;20027;-86
2022/11/03 20:04:19;;;;;;;10.13;7.18;;;;;;;;;;6277568;22;20047;-86
2022/11/03 20:06:44;;;;;;;10.82;6.68;;;;;;;;;;6278110;22;20055;-86
2022/11/03 20:09:10;;;;;;;;;;;;;;;;;;6276532;22;20007;-87
2022/11/03 20:11:36;;;;;;;10.85;6.45;;;;;;;;;;6302385;22;19903;-85
2022/11/03 20:14:02;;;;;;;10.50;5.85;;;;;;;;;;6275772;22;20011;-85
2022/11/03 20:16:31;;;;;;;8.30;6.00;;;;;;;;;;6250981;22;19999;-85
2022/11/03 20:18:56;;;;;;;8.52;6.10;;;;;;;;;;6276358;22;20008;-86
2022/11/03 20:21:22;;;;;;;9.95;6.88;;;;;;;;;;6276803;22;20003;-86
2022/11/03 20:23:49;;;;;;;12.85;7.10;;;;;;;;;;6280611;22;20014;-87
2022/11/03 20:29:43;;;;;;;9.60;6.13;;;;;;;;;;6332550;22;20021;-87
2022/11/03 20:32:11;;;;;;;9.60;6.55;;;;;;;;;;6279953;22;20007;-86
2022/11/03 20:34:38;;;;;;;13.00;6.93;;;;;;;;;;6304859;22;20009;-86
2022/11/03 20:37:13;;;;;;;13.05;7.03;;;;;;;;;;6305392;22;20037;-87
2022/11/03 20:39:39;;;;;;;8.00;6.43;;;;;;;;;;6256725;22;19994;-86
2022/11/03 20:42:05;;;;;;;13.52;6.63;;;;;;;;;;6281295;22;20003;-85
2022/11/03 20:44:33;;;;;;;10.52;6.82;;;;;;;;;;6281928;22;20018;-87
2022/11/03 20:46:59;;;;;;;17.55;6.97;;;;;;;;;;6258021;22;20059;-87
2022/11/03 20:49:25;;;;;;;11.32;7.00;;;;;;;;;;6258312;22;20059;-86
2022/11/03 20:51:50;;;;;;;9.68;6.55;;;;;;;;;;6282428;22;19991;-87
2022/11/03 20:54:17;;;;;;;12.05;6.25;;;;;;;;;;6256792;22;20022;-85
2022/11/03 20:57:08;;;;;;;10.88;7.05;;;;;;;;;;6307829;22;20075;-86
2022/11/03 20:59:36;;;;;;;9.40;6.57;;;;;;;;;;6307047;22;20014;-86
2022/11/03 21:02:05;;;;;;;10.07;6.22;;;;;;;;;;6253779;22;20030;-84
2022/11/03 21:04:30;;;;;;;9.50;6.65;;;;;;;;;;6254704;22;20011;-86
2022/11/03 21:06:56;;;;;;;8.18;6.07;;;;;;;;;;6254105;22;19999;-86
2022/11/03 21:09:22;;;;;;;10.75;6.30;;;;;;;;;;6279106;22;20062;-86
2022/11/03 21:11:50;;;;;;;9.57;7.22;;;;;;;;;;6307506;22;20047;-85
2022/11/03 21:14:26;;;;;;;9.90;6.50;;;;;;;;;;6253375;22;20019;-86
2022/11/03 21:22:23;;;;;;;11.35;6.90;;;;;;;;;;6280348;22;20007;-86
2022/11/03 21:24:49;;;;;;;11.85;7.15;;;;;;;;;;6279634;22;20019;-84
2022/11/03 21:27:14;;;;;;;13.98;7.07;;;;;;;;;;6254625;22;19979;-85
2022/11/03 21:29:42;;;;;;;8.98;6.57;;;;;;;;;;6306719;22;20226;-86
2022/11/03 21:32:09;;;;;;;11.07;6.97;;;;;;;;;;6279914;22;20070;-87
2022/11/03 21:34:38;;;;;;;10.35;7.25;;;;;;;;;;6306791;22;20011;-86
2022/11/03 21:37:04;;;;;;;9.05;6.55;;;;;;;;;;6302416;22;19999;-84
2022/11/03 21:39:31;;;;;;;8.93;6.97;;;;;;;;;;6280569;22;20007;-86
2022/11/03 21:44:43;;;;;;;13.23;7.25;;;;;;;;;;6286441;22;20007;-86
2022/11/03 21:47:09;;;;;;;10.43;7.22;;;;;;;;;;6255745;22;20010;-85
2022/11/03 21:49:43;;;;;;;11.88;7.13;;;;;;;;;;6305139;22;19991;-84
2022/11/03 21:52:10;;;;;;;9.07;6.90;;;;;;;;;;6281608;22;20018;-87
2022/11/03 21:54:37;;;;;;;9.23;6.47;;;;;;;;;;6278057;22;20021;-85
2022/11/03 21:57:04;;;;;;;11.10;6.28;;;;;;;;;;6276930;22;20035;-85
2022/11/03 21:59:29;;;;;;;10.65;7.38;;;;;;;;;;6278052;22;19975;-84
2022/11/03 22:01:56;;;;;;;9.98;7.60;;;;;;;;;;6277148;22;20033;-87
2022/11/03 22:04:22;;;;;;;12.05;7.55;;;;;;;;;;6250063;22;20010;-84
2022/11/03 22:06:49;;;;;;;11.77;7.18;;;;;;;;;;6247969;22;20025;-85
2022/11/03 22:09:15;;;;;;;11.13;7.60;;;;;;;;;;6272436;22;20003;-85
2022/11/03 22:11:41;;;;;;;11.52;7.53;;;;;;;;;;6275999;22;20015;-85
2022/11/03 22:14:07;;;;;;;13.02;8.20;;;;;;;;;;6247706;22;20030;-86
2022/11/03 22:16:36;;;;;;;11.10;7.65;;;;;;;;;;6249353;22;20011;-85
2022/11/03 22:27:37;;;;;;;10.38;7.57;;;;;;;;;;6279826;22;19995;-85
2022/11/03 22:32:50;;;;;;;10.70;7.32;;;;;;;;;;6275445;22;20442;-85
2022/11/03 22:38:04;;;;;;;10.50;7.63;;;;;;;;;;6275749;22;20007;-85
2022/11/03 22:45:59;;;;;;;11.70;7.38;;;;;;;;;;6276667;22;20011;-85
2022/11/03 22:48:24;;;;;;;10.73;7.53;;;;;;;;;;6247423;22;19999;-85
2022/11/03 22:51:09;;;;;;;12.20;8.25;;;;;;;;;;6246703;22;20011;-84
2022/11/03 22:56:19;;;;;;;10.98;8.02;;;;;;;;;;6291948;22;20015;-85
2022/11/03 22:58:45;;;;;;;10.25;7.50;;;;;;;;;;6241388;22;20011;-84
2022/11/03 23:01:11;;;;;;;9.90;7.40;;;;;;;;;;6241677;22;20356;-85
2022/11/03 23:03:37;;;;;;;11.65;8.35;;;;;;;;;;6244544;22;20006;-85
2022/11/03 23:06:20;;;;;;;11.23;7.53;;;;;;;;;;6273364;22;20051;-85
2022/11/03 23:08:46;;;;;;;10.43;7.63;;;;;;;;;;6241091;22;20431;-84
2022/11/03 23:11:15;;;;;;;11.23;7.53;;;;;;;;;;6267213;22;20012;-85
2022/11/03 23:13:42;;;;;;;11.18;7.95;;;;;;;;;;6242235;22;20450;-87
2022/11/03 23:16:12;;;;;;;10.73;7.88;;;;;;;;;;6265799;22;20008;-87
2022/11/03 23:21:22;;;;;;;11.25;8.18;;;;;;;;;;6274885;22;20628;-85
2022/11/03 23:26:32;;;;;;;15.18;9.15;;;;;;;;;;6270415;22;20012;-86
2022/11/03 23:28:57;;;;;;;13.90;9.70;;;;;;;;;;6265532;22;20428;-86
2022/11/03 23:31:23;;;;;;;12.50;8.77;;;;;;;;;;6240419;22;20030;-85
2022/11/03 23:33:48;;;;;;;12.25;8.35;;;;;;;;;;6269385;22;20000;-85
2022/11/03 23:36:14;;;;;;;11.52;8.30;;;;;;;;;;6271158;22;20008;-85
2022/11/03 23:38:40;;;;;;;11.18;7.88;;;;;;;;;;6273364;22;20014;-85
2022/11/03 23:41:06;;;;;;;12.93;8.57;;;;;;;;;;6241459;22;20012;-84
2022/11/03 23:43:32;;;;;;;12.65;8.27;;;;;;;;;;6240648;22;20003;-85
2022/11/03 23:48:45;;;;;;;13.23;8.30;;;;;;;;;;6270159;22;20034;-85
2022/11/03 23:51:11;;;;;;;13.43;9.02;;;;;;;;;;6238503;22;19999;-85
2022/11/03 23:53:36;;;;;;;12.07;7.80;;;;;;;;;;6239449;22;20011;-86
2022/11/03 23:58:49;;;;;;;11.25;8.43;;;;;;;;;;6269819;22;20018;-87
